sensor_id;sensor_type;location;lat;lon;timestamp;pressure;altitude;pressure_sealevel;temperature;humidity
68654;BME280;55636;51.108;13.622;2024-01-16T00:00:58;98927.84;;;1.12;56.95
68654;BME280;55636;51.108;13.622;2024-01-16T00:02:01;98925.94;;;1.13;56.84
68654;BME280;55636;51.108;13.622;2024-01-16T00:03:03;98918.00;;;1.11;56.63
68654;BME280;55636;51.108;13.622;2024-01-16T00:04:06;98927.22;;;1.10;56.43
68654;BME280;55636;51.108;13.622;2024-01-16T00:05:10;98929.13;;;1.09;56.33
68654;BME280;55636;51.108;13.622;2024-01-16T00:06:12;98914.72;;;1.09;56.25
68654;BME280;55636;51.108;13.622;2024-01-16T00:07:15;98925.13;;;1.12;56.11
68654;BME280;55636;51.108;13.622;2024-01-16T00:08:17;98922.88;;;1.09;56.01
68654;BME280;55636;51.108;13.622;2024-01-16T00:09:20;98924.75;;;1.08;55.88
68654;BME280;55636;51.108;13.622;2024-01-16T00:10:22;98913.63;;;1.10;55.77
68654;BME280;55636;51.108;13.622;2024-01-16T00:11:25;98922.03;;;1.08;55.69
68654;BME280;55636;51.108;13.622;2024-01-16T00:12:27;98925.59;;;1.09;55.66
68654;BME280;55636;51.108;13.622;2024-01-16T00:13:29;98923.44;;;1.11;55.56
68654;BME280;55636;51.108;13.622;2024-01-16T00:14:36;98920.16;;;1.09;55.45
68654;BME280;55636;51.108;13.622;2024-01-16T00:15:39;98923.09;;;1.07;55.61
68654;BME280;55636;51.108;13.622;2024-01-16T00:16:45;98926.66;;;1.08;55.44
68654;BME280;55636;51.108;13.622;2024-01-16T00:17:48;98926.66;;;1.08;55.50
68654;BME280;55636;51.108;13.622;2024-01-16T00:18:50;98939.41;;;1.07;55.37
68654;BME280;55636;51.108;13.622;2024-01-16T00:19:53;98947.56;;;1.07;55.41
68654;BME280;55636;51.108;13.622;2024-01-16T00:20:55;98952.41;;;1.05;55.37
68654;BME280;55636;51.108;13.622;2024-01-16T00:21:57;98948.66;;;1.06;55.40
68654;BME280;55636;51.108;13.622;2024-01-16T00:23:00;98948.66;;;1.06;55.68
68654;BME280;55636;51.108;13.622;2024-01-16T00:24:03;98952.19;;;1.07;55.71
68654;BME280;55636;51.108;13.622;2024-01-16T00:25:06;98950.06;;;1.09;56.10
68654;BME280;55636;51.108;13.622;2024-01-16T00:26:19;98944.84;;;1.07;56.85
68654;BME280;55636;51.108;13.622;2024-01-16T00:27:21;98937.97;;;1.05;57.01
68654;BME280;55636;51.108;13.622;2024-01-16T00:28:24;98946.97;;;1.05;57.04
68654;BME280;55636;51.108;13.622;2024-01-16T00:29:26;98948.28;;;1.03;57.43
68654;BME280;55636;51.108;13.622;2024-01-16T00:30:29;98954.53;;;1.03;57.60
68654;BME280;55636;51.108;13.622;2024-01-16T00:31:31;98952.06;;;1.02;57.58
68654;BME280;55636;51.108;13.622;2024-01-16T00:32:34;98949.56;;;1.00;57.80
68654;BME280;55636;51.108;13.622;2024-01-16T00:33:36;98948.50;;;1.01;57.60
68654;BME280;55636;51.108;13.622;2024-01-16T00:34:41;98952.06;;;1.02;57.55
68654;BME280;55636;51.108;13.622;2024-01-16T00:35:43;98955.00;;;1.00;57.80
68654;BME280;55636;51.108;13.622;2024-01-16T00:36:46;98960.69;;;0.99;57.64
68654;BME280;55636;51.108;13.622;2024-01-16T00:37:48;98954.16;;;1.00;57.63
68654;BME280;55636;51.108;13.622;2024-01-16T00:38:50;98953.59;;;0.98;57.63
68654;BME280;55636;51.108;13.622;2024-01-16T00:39:53;98963.41;;;0.99;57.44
68654;BME280;55636;51.108;13.622;2024-01-16T00:40:55;98961.97;;;0.96;57.41
68654;BME280;55636;51.108;13.622;2024-01-16T00:41:57;98962.78;;;0.97;57.50
68654;BME280;55636;51.108;13.622;2024-01-16T00:43:00;98951.31;;;0.94;57.51
68654;BME280;55636;51.108;13.622;2024-01-16T00:44:02;98958.66;;;0.94;57.29
68654;BME280;55636;51.108;13.622;2024-01-16T00:45:05;98963.03;;;0.95;57.45
68654;BME280;55636;51.108;13.622;2024-01-16T00:46:08;98954.25;;;0.93;57.51
68654;BME280;55636;51.108;13.622;2024-01-16T00:47:10;98967.03;;;0.92;57.39
68654;BME280;55636;51.108;13.622;2024-01-16T00:48:12;98966.44;;;0.90;57.54
68654;BME280;55636;51.108;13.622;2024-01-16T00:49:16;98975.66;;;0.89;57.62
68654;BME280;55636;51.108;13.622;2024-01-16T00:50:22;98978.16;;;0.91;57.54
68654;BME280;55636;51.108;13.622;2024-01-16T00:51:26;98965.63;;;0.90;57.73
68654;BME280;55636;51.108;13.622;2024-01-16T00:52:29;98978.38;;;0.89;57.60
68654;BME280;55636;51.108;13.622;2024-01-16T00:53:31;98974.59;;;0.90;57.61
68654;BME280;55636;51.108;13.622;2024-01-16T00:54:33;98968.34;;;0.90;57.77
68654;BME280;55636;51.108;13.622;2024-01-16T00:55:36;98973.78;;;0.90;57.63
68654;BME280;55636;51.108;13.622;2024-01-16T00:56:38;98964.78;;;0.89;57.63
68654;BME280;55636;51.108;13.622;2024-01-16T00:57:41;98962.06;;;0.89;57.64
68654;BME280;55636;51.108;13.622;2024-01-16T00:58:43;98972.94;;;0.89;57.74
68654;BME280;55636;51.108;13.622;2024-01-16T00:59:46;98975.66;;;0.89;57.65
68654;BME280;55636;51.108;13.622;2024-01-16T01:00:49;98972.09;;;0.89;57.49
68654;BME280;55636;51.108;13.622;2024-01-16T01:01:51;98968.09;;;0.91;57.63
68654;BME280;55636;51.108;13.622;2024-01-16T01:02:53;98973.53;;;0.91;57.59
68654;BME280;55636;51.108;13.622;2024-01-16T01:03:56;98974.59;;;0.90;57.42
68654;BME280;55636;51.108;13.622;2024-01-16T01:04:58;98978.16;;;0.91;57.47
68654;BME280;55636;51.108;13.622;2024-01-16T01:06:01;98984.41;;;0.91;57.39
68654;BME280;55636;51.108;13.622;2024-01-16T01:07:04;98982.31;;;0.93;57.43
68654;BME280;55636;51.108;13.622;2024-01-16T01:08:06;98977.31;;;0.90;57.29
68654;BME280;55636;51.108;13.622;2024-01-16T01:09:09;98987.13;;;0.91;57.29
68654;BME280;55636;51.108;13.622;2024-01-16T01:10:14;98978.97;;;0.91;57.22
68654;BME280;55636;51.108;13.622;2024-01-16T01:11:16;98986.91;;;0.93;57.15
68654;BME280;55636;51.108;13.622;2024-01-16T01:12:19;98986.91;;;0.93;57.31
68654;BME280;55636;51.108;13.622;2024-01-16T01:13:22;98983.34;;;0.92;57.23
68654;BME280;55636;51.108;13.622;2024-01-16T01:14:24;98983.34;;;0.92;57.36
68654;BME280;55636;51.108;13.622;2024-01-16T01:15:28;98994.22;;;0.92;57.40
68654;BME280;55636;51.108;13.622;2024-01-16T01:16:31;98999.66;;;0.92;57.35
68654;BME280;55636;51.108;13.622;2024-01-16T01:17:33;98999.66;;;0.92;57.57
68654;BME280;55636;51.108;13.622;2024-01-16T01:18:36;98996.94;;;0.92;57.43
68654;BME280;55636;51.108;13.622;2024-01-16T01:19:38;99008.88;;;0.91;57.80
68654;BME280;55636;51.108;13.622;2024-01-16T01:20:41;99007.00;;;0.92;57.67
68654;BME280;55636;51.108;13.622;2024-01-16T01:21:43;99007.22;;;0.90;57.66
68654;BME280;55636;51.108;13.622;2024-01-16T01:22:46;99001.56;;;0.92;57.72
68654;BME280;55636;51.108;13.622;2024-01-16T01:23:48;99000.16;;;0.89;57.78
68654;BME280;55636;51.108;13.622;2024-01-16T01:24:51;99004.50;;;0.90;57.72
68654;BME280;55636;51.108;13.622;2024-01-16T01:25:53;99002.88;;;0.89;57.79
68654;BME280;55636;51.108;13.622;2024-01-16T01:26:55;99009.34;;;0.88;57.98
68654;BME280;55636;51.108;13.622;2024-01-16T01:27:58;99002.88;;;0.89;57.92
68654;BME280;55636;51.108;13.622;2024-01-16T01:29:00;99011.03;;;0.89;57.82
68654;BME280;55636;51.108;13.622;2024-01-16T01:30:03;99009.34;;;0.88;57.97
68654;BME280;55636;51.108;13.622;2024-01-16T01:31:09;99013.75;;;0.89;57.96
68654;BME280;55636;51.108;13.622;2024-01-16T01:32:11;99002.25;;;0.87;58.10
68654;BME280;55636;51.108;13.622;2024-01-16T01:33:14;99015.03;;;0.87;58.11
68654;BME280;55636;51.108;13.622;2024-01-16T01:34:16;99015.22;;;0.85;57.93
68654;BME280;55636;51.108;13.622;2024-01-16T01:35:19;99024.25;;;0.86;57.89
68654;BME280;55636;51.108;13.622;2024-01-16T01:36:22;99018.78;;;0.86;57.97
68654;BME280;55636;51.108;13.622;2024-01-16T01:37:24;99007.06;;;0.85;57.93
68654;BME280;55636;51.108;13.622;2024-01-16T01:38:26;99014.19;;;0.86;57.91
68654;BME280;55636;51.108;13.622;2024-01-16T01:39:29;99017.13;;;0.85;58.00
68654;BME280;55636;51.108;13.622;2024-01-16T01:40:32;99017.38;;;0.83;57.93
68654;BME280;55636;51.108;13.622;2024-01-16T01:41:34;99016.31;;;0.84;57.88
68654;BME280;55636;51.108;13.622;2024-01-16T01:42:37;99021.75;;;0.84;58.00
68654;BME280;55636;51.108;13.622;2024-01-16T01:43:39;99020.09;;;0.83;57.85
68654;BME280;55636;51.108;13.622;2024-01-16T01:44:42;99017.59;;;0.82;58.02
68654;BME280;55636;51.108;13.622;2024-01-16T01:45:44;99024.47;;;0.84;58.01
68654;BME280;55636;51.108;13.622;2024-01-16T01:46:47;99023.63;;;0.84;57.87
68654;BME280;55636;51.108;13.622;2024-01-16T01:47:50;99023.84;;;0.82;57.85
68654;BME280;55636;51.108;13.622;2024-01-16T01:48:52;99019.25;;;0.83;57.87
68654;BME280;55636;51.108;13.622;2024-01-16T01:49:55;99014.66;;;0.83;57.80
68654;BME280;55636;51.108;13.622;2024-01-16T01:50:59;99019.47;;;0.81;57.93
68654;BME280;55636;51.108;13.622;2024-01-16T01:52:02;99026.34;;;0.84;57.72
68654;BME280;55636;51.108;13.622;2024-01-16T01:53:05;99027.19;;;0.84;57.54
68654;BME280;55636;51.108;13.622;2024-01-16T01:54:09;99020.09;;;0.83;57.57
68654;BME280;55636;51.108;13.622;2024-01-16T01:55:13;99023.03;;;0.82;57.68
68654;BME280;55636;51.108;13.622;2024-01-16T01:56:18;99027.41;;;0.83;57.50
68654;BME280;55636;51.108;13.622;2024-01-16T01:57:21;99027.41;;;0.83;57.44
68654;BME280;55636;51.108;13.622;2024-01-16T01:58:23;99027.63;;;0.81;57.42
68654;BME280;55636;51.108;13.622;2024-01-16T01:59:26;99033.91;;;0.82;57.52
68654;BME280;55636;51.108;13.622;2024-01-16T02:00:29;99041.22;;;0.81;57.29
68654;BME280;55636;51.108;13.622;2024-01-16T02:01:31;99032.00;;;0.82;57.27
68654;BME280;55636;51.108;13.622;2024-01-16T02:02:34;99030.97;;;0.83;57.15
68654;BME280;55636;51.108;13.622;2024-01-16T02:03:41;99030.72;;;0.85;57.19
68654;BME280;55636;51.108;13.622;2024-01-16T02:04:44;99038.06;;;0.84;57.19
68654;BME280;55636;51.108;13.622;2024-01-16T02:05:49;99043.03;;;0.87;57.11
68654;BME280;55636;51.108;13.622;2024-01-16T02:06:53;99042.41;;;0.85;56.97
68654;BME280;55636;51.108;13.622;2024-01-16T02:07:56;99040.31;;;0.87;57.06
68654;BME280;55636;51.108;13.622;2024-01-16T02:08:58;99043.03;;;0.87;56.88
68654;BME280;55636;51.108;13.622;2024-01-16T02:10:01;99041.97;;;0.88;56.96
68654;BME280;55636;51.108;13.622;2024-01-16T02:11:24;99041.97;;;0.88;57.00
68654;BME280;55636;51.108;13.622;2024-01-16T02:12:26;99051.19;;;0.87;56.88
68654;BME280;55636;51.108;13.622;2024-01-16T02:13:29;99042.78;;;0.89;56.85
68654;BME280;55636;51.108;13.622;2024-01-16T02:14:31;99049.09;;;0.89;56.70
68654;BME280;55636;51.108;13.622;2024-01-16T02:15:34;99049.09;;;0.89;56.65
68654;BME280;55636;51.108;13.622;2024-01-16T02:16:41;99042.56;;;0.90;56.69
68654;BME280;55636;51.108;13.622;2024-01-16T02:17:43;99055.72;;;0.93;56.87
68654;BME280;55636;51.108;13.622;2024-01-16T02:18:46;99052.16;;;0.93;56.83
68654;BME280;55636;51.108;13.622;2024-01-16T02:19:48;99056.53;;;0.94;56.67
68654;BME280;55636;51.108;13.622;2024-01-16T02:20:50;99057.34;;;0.94;56.82
68654;BME280;55636;51.108;13.622;2024-01-16T02:21:59;99061.75;;;0.96;56.78
68654;BME280;55636;51.108;13.622;2024-01-16T02:23:03;99053.34;;;0.97;56.86
68654;BME280;55636;51.108;13.622;2024-01-16T02:24:07;99061.97;;;0.94;56.98
68654;BME280;55636;51.108;13.622;2024-01-16T02:25:10;99064.22;;;0.97;56.90
68654;BME280;55636;51.108;13.622;2024-01-16T02:26:14;99061.75;;;0.96;56.77
68654;BME280;55636;51.108;13.622;2024-01-16T02:27:17;99055.25;;;0.97;56.86
68654;BME280;55636;51.108;13.622;2024-01-16T02:28:19;99057.59;;;0.93;56.92
68654;BME280;55636;51.108;13.622;2024-01-16T02:29:22;99065.50;;;0.94;56.86
68654;BME280;55636;51.108;13.622;2024-01-16T02:30:24;99060.94;;;0.95;56.68
68654;BME280;55636;51.108;13.622;2024-01-16T02:31:26;99067.41;;;0.94;56.76
68654;BME280;55636;51.108;13.622;2024-01-16T02:32:29;99061.75;;;0.96;56.72
68654;BME280;55636;51.108;13.622;2024-01-16T02:33:31;99069.91;;;0.96;56.73
68654;BME280;55636;51.108;13.622;2024-01-16T02:34:33;99068.84;;;0.97;56.91
68654;BME280;55636;51.108;13.622;2024-01-16T02:35:36;99078.06;;;0.96;56.79
68654;BME280;55636;51.108;13.622;2024-01-16T02:36:38;99079.97;;;0.95;57.02
68654;BME280;55636;51.108;13.622;2024-01-16T02:37:40;99070.94;;;0.94;57.00
68654;BME280;55636;51.108;13.622;2024-01-16T02:38:43;99078.91;;;0.96;57.25
68654;BME280;55636;51.108;13.622;2024-01-16T02:39:47;99073.69;;;0.94;57.23
68654;BME280;55636;51.108;13.622;2024-01-16T02:40:50;99074.53;;;0.95;57.22
68654;BME280;55636;51.108;13.622;2024-01-16T02:41:53;99081.84;;;0.94;57.31
68654;BME280;55636;51.108;13.622;2024-01-16T02:42:55;99088.94;;;0.96;57.45
68654;BME280;55636;51.108;13.622;2024-01-16T02:43:58;99088.34;;;0.93;57.51
68654;BME280;55636;51.108;13.622;2024-01-16T02:45:00;99080.19;;;0.93;57.56
68654;BME280;55636;51.108;13.622;2024-01-16T02:46:02;99091.88;;;0.94;57.70
68654;BME280;55636;51.108;13.622;2024-01-16T02:47:05;99086.69;;;0.92;57.72
68654;BME280;55636;51.108;13.622;2024-01-16T02:48:09;99095.91;;;0.91;57.96
68654;BME280;55636;51.108;13.622;2024-01-16T02:49:12;99101.94;;;0.93;57.85
68654;BME280;55636;51.108;13.622;2024-01-16T02:50:14;99089.41;;;0.92;57.88
68654;BME280;55636;51.108;13.622;2024-01-16T02:51:16;99099.47;;;0.92;57.82
68654;BME280;55636;51.108;13.622;2024-01-16T02:52:19;99100.06;;;0.94;57.71
68654;BME280;55636;51.108;13.622;2024-01-16T02:53:21;99092.50;;;0.96;57.59
68654;BME280;55636;51.108;13.622;2024-01-16T02:54:24;99093.31;;;0.97;57.50
68654;BME280;55636;51.108;13.622;2024-01-16T02:55:26;99100.66;;;0.96;57.56
68654;BME280;55636;51.108;13.622;2024-01-16T02:56:28;99087.06;;;0.96;57.44
68654;BME280;55636;51.108;13.622;2024-01-16T02:57:31;99097.94;;;0.96;57.38
68654;BME280;55636;51.108;13.622;2024-01-16T02:58:33;99084.56;;;0.94;57.32
68654;BME280;55636;51.108;13.622;2024-01-16T02:59:36;99101.47;;;0.97;57.33
68654;BME280;55636;51.108;13.622;2024-01-16T03:00:38;99104.19;;;0.97;57.17
68654;BME280;55636;51.108;13.622;2024-01-16T03:01:41;99097.94;;;0.96;57.16
68654;BME280;55636;51.108;13.622;2024-01-16T03:02:44;99106.91;;;0.97;57.01
68654;BME280;55636;51.108;13.622;2024-01-16T03:03:46;99109.63;;;0.97;57.14
68654;BME280;55636;51.108;13.622;2024-01-16T03:04:49;99109.63;;;0.97;56.93
68654;BME280;55636;51.108;13.622;2024-01-16T03:05:52;99112.34;;;0.97;57.03
68654;BME280;55636;51.108;13.622;2024-01-16T03:06:55;99109.41;;;0.98;57.07
68654;BME280;55636;51.108;13.622;2024-01-16T03:07:57;99115.47;;;1.00;56.73
68654;BME280;55636;51.108;13.622;2024-01-16T03:08:59;99118.41;;;0.99;56.88
68654;BME280;55636;51.108;13.622;2024-01-16T03:10:03;99117.34;;;1.00;56.86
68654;BME280;55636;51.108;13.622;2024-01-16T03:11:05;99123.63;;;1.00;56.67
68654;BME280;55636;51.108;13.622;2024-01-16T03:12:08;99114.41;;;1.01;56.76
68654;BME280;55636;51.108;13.622;2024-01-16T03:13:10;99120.91;;;1.00;56.57
68654;BME280;55636;51.108;13.622;2024-01-16T03:14:12;99120.66;;;1.02;56.62
68654;BME280;55636;51.108;13.622;2024-01-16T03:15:15;99124.22;;;1.02;56.52
68654;BME280;55636;51.108;13.622;2024-01-16T03:16:18;99132.97;;;1.04;56.53
68654;BME280;55636;51.108;13.622;2024-01-16T03:17:20;99134.88;;;1.04;56.40
68654;BME280;55636;51.108;13.622;2024-01-16T03:18:23;99132.97;;;1.04;56.20
68654;BME280;55636;51.108;13.622;2024-01-16T03:19:26;99128.38;;;1.05;56.20
68654;BME280;55636;51.108;13.622;2024-01-16T03:20:29;99130.88;;;1.06;56.09
68654;BME280;55636;51.108;13.622;2024-01-16T03:21:31;99128.97;;;1.07;56.12
68654;BME280;55636;51.108;13.622;2024-01-16T03:22:34;99135.22;;;1.07;55.99
68654;BME280;55636;51.108;13.622;2024-01-16T03:23:36;99137.38;;;1.05;55.90
68654;BME280;55636;51.108;13.622;2024-01-16T03:24:53;99135.22;;;1.07;56.02
68654;BME280;55636;51.108;13.622;2024-01-16T03:25:56;99135.47;;;1.06;55.76
68654;BME280;55636;51.108;13.622;2024-01-16T03:26:59;99141.53;;;1.08;55.71
68654;BME280;55636;51.108;13.622;2024-01-16T03:28:02;99137.94;;;1.07;55.73
68654;BME280;55636;51.108;13.622;2024-01-16T03:29:04;99132.50;;;1.07;55.71
68654;BME280;55636;51.108;13.622;2024-01-16T03:30:08;99147.53;;;1.10;55.57
68654;BME280;55636;51.108;13.622;2024-01-16T03:31:12;99144.84;;;1.10;55.54
68654;BME280;55636;51.108;13.622;2024-01-16T03:32:16;99148.63;;;1.09;55.56
68654;BME280;55636;51.108;13.622;2024-01-16T03:33:19;99147.53;;;1.10;55.47
68654;BME280;55636;51.108;13.622;2024-01-16T03:34:23;99147.34;;;1.12;55.40
68654;BME280;55636;51.108;13.622;2024-01-16T03:35:25;99151.69;;;1.13;55.48
68654;BME280;55636;51.108;13.622;2024-01-16T03:36:28;99144.84;;;1.10;55.65
68654;BME280;55636;51.108;13.622;2024-01-16T03:37:30;99151.94;;;1.11;55.50
68654;BME280;55636;51.108;13.622;2024-01-16T03:38:32;99157.16;;;1.13;55.57
68654;BME280;55636;51.108;13.622;2024-01-16T03:39:36;99147.13;;;1.13;55.76
68654;BME280;55636;51.108;13.622;2024-01-16T03:40:38;99154.44;;;1.13;55.77
68654;BME280;55636;51.108;13.622;2024-01-16T03:41:41;99156.94;;;1.14;55.83
68654;BME280;55636;51.108;13.622;2024-01-16T03:42:43;99159.66;;;1.14;55.64
68654;BME280;55636;51.108;13.622;2024-01-16T03:43:45;99158.56;;;1.15;55.84
68654;BME280;55636;51.108;13.622;2024-01-16T03:44:48;99164.88;;;1.16;55.95
68654;BME280;55636;51.108;13.622;2024-01-16T03:45:50;99155.63;;;1.17;55.90
68654;BME280;55636;51.108;13.622;2024-01-16T03:46:52;99160.88;;;1.18;56.07
68654;BME280;55636;51.108;13.622;2024-01-16T03:47:55;99165.47;;;1.18;55.93
68654;BME280;55636;51.108;13.622;2024-01-16T03:48:57;99170.06;;;1.17;55.91
68654;BME280;55636;51.108;13.622;2024-01-16T03:50:00;99160.00;;;1.18;55.96
68654;BME280;55636;51.108;13.622;2024-01-16T03:51:02;99167.34;;;1.17;56.12
68654;BME280;55636;51.108;13.622;2024-01-16T03:52:05;99163.59;;;1.18;56.46
68654;BME280;55636;51.108;13.622;2024-01-16T03:53:07;99171.75;;;1.18;56.33
68654;BME280;55636;51.108;13.622;2024-01-16T03:54:11;99166.31;;;1.18;56.47
68654;BME280;55636;51.108;13.622;2024-01-16T03:55:14;99161.69;;;1.19;56.58
68654;BME280;55636;51.108;13.622;2024-01-16T03:56:16;99171.75;;;1.18;56.54
68654;BME280;55636;51.108;13.622;2024-01-16T03:57:19;99167.34;;;1.17;56.64
68654;BME280;55636;51.108;13.622;2024-01-16T03:58:21;99173.63;;;1.18;56.58
68654;BME280;55636;51.108;13.622;2024-01-16T03:59:25;99182.63;;;1.18;56.51
68654;BME280;55636;51.108;13.622;2024-01-16T04:00:27;99178.00;;;1.19;56.59
68654;BME280;55636;51.108;13.622;2024-01-16T04:01:33;99181.53;;;1.19;56.73
68654;BME280;55636;51.108;13.622;2024-01-16T04:02:37;99182.63;;;1.18;56.71
68654;BME280;55636;51.108;13.622;2024-01-16T04:03:39;99180.72;;;1.19;56.69
68654;BME280;55636;51.108;13.622;2024-01-16T04:04:42;99173.38;;;1.19;56.65
68654;BME280;55636;51.108;13.622;2024-01-16T04:05:45;99180.50;;;1.20;56.67
68654;BME280;55636;51.108;13.622;2024-01-16T04:06:48;99180.25;;;1.22;56.58
68654;BME280;55636;51.108;13.622;2024-01-16T04:07:50;99178.81;;;1.19;56.45
68654;BME280;55636;51.108;13.622;2024-01-16T04:08:52;99185.13;;;1.20;56.71
68654;BME280;55636;51.108;13.622;2024-01-16T04:09:55;99189.50;;;1.21;56.62
68654;BME280;55636;51.108;13.622;2024-01-16T04:10:57;99182.63;;;1.18;56.54
68654;BME280;55636;51.108;13.622;2024-01-16T04:11:59;99181.53;;;1.19;56.72
68654;BME280;55636;51.108;13.622;2024-01-16T04:13:02;99191.38;;;1.20;56.70
68654;BME280;55636;51.108;13.622;2024-01-16T04:14:05;99181.53;;;1.19;56.76
68654;BME280;55636;51.108;13.622;2024-01-16T04:15:07;99185.34;;;1.18;56.79
68654;BME280;55636;51.108;13.622;2024-01-16T04:16:12;99185.34;;;1.18;57.05
68654;BME280;55636;51.108;13.622;2024-01-16T04:17:14;99200.59;;;1.19;57.02
68654;BME280;55636;51.108;13.622;2024-01-16T04:18:16;99197.28;;;1.17;57.14
68654;BME280;55636;51.108;13.622;2024-01-16T04:19:19;99192.88;;;1.16;57.40
68654;BME280;55636;51.108;13.622;2024-01-16T04:20:22;99190.78;;;1.18;57.23
68654;BME280;55636;51.108;13.622;2024-01-16T04:21:24;99195.59;;;1.16;57.43
68654;BME280;55636;51.108;13.622;2024-01-16T04:22:27;99192.06;;;1.16;57.51
68654;BME280;55636;51.108;13.622;2024-01-16T04:23:29;99194.78;;;1.16;57.61
68654;BME280;55636;51.108;13.622;2024-01-16T04:24:32;99199.38;;;1.15;57.45
68654;BME280;55636;51.108;13.622;2024-01-16T04:25:34;99201.06;;;1.16;57.45
68654;BME280;55636;51.108;13.622;2024-01-16T04:26:37;99200.47;;;1.14;57.40
68654;BME280;55636;51.108;13.622;2024-01-16T04:27:42;99201.28;;;1.15;57.44
68654;BME280;55636;51.108;13.622;2024-01-16T04:28:44;99200.66;;;1.13;57.38
68654;BME280;55636;51.108;13.622;2024-01-16T04:29:46;99199.84;;;1.12;57.38
68654;BME280;55636;51.108;13.622;2024-01-16T04:30:49;99197.94;;;1.13;57.41
68654;BME280;55636;51.108;13.622;2024-01-16T04:31:52;99196.06;;;1.13;57.33
68654;BME280;55636;51.108;13.622;2024-01-16T04:32:54;99195.22;;;1.13;57.34
68654;BME280;55636;51.108;13.622;2024-01-16T04:33:56;99193.34;;;1.13;57.14
68654;BME280;55636;51.108;13.622;2024-01-16T04:34:59;99194.41;;;1.12;57.13
68654;BME280;55636;51.108;13.622;2024-01-16T04:36:01;99187.53;;;1.09;56.98
68654;BME280;55636;51.108;13.622;2024-01-16T04:37:03;99190.03;;;1.11;56.93
68654;BME280;55636;51.108;13.622;2024-01-16T04:38:06;99191.69;;;1.12;56.78
68654;BME280;55636;51.108;13.622;2024-01-16T04:39:09;99189.78;;;1.13;56.71
68654;BME280;55636;51.108;13.622;2024-01-16T04:40:12;99194.41;;;1.12;56.71
68654;BME280;55636;51.108;13.622;2024-01-16T04:41:17;99192.75;;;1.11;56.57
68654;BME280;55636;51.108;13.622;2024-01-16T04:42:20;99192.50;;;1.13;56.49
68654;BME280;55636;51.108;13.622;2024-01-16T04:43:22;99197.13;;;1.12;56.50
68654;BME280;55636;51.108;13.622;2024-01-16T04:44:25;99197.75;;;1.14;56.28
68654;BME280;55636;51.108;13.622;2024-01-16T04:45:27;99202.56;;;1.12;56.29
68654;BME280;55636;51.108;13.622;2024-01-16T04:46:29;99194.41;;;1.12;56.06
68654;BME280;55636;51.108;13.622;2024-01-16T04:47:32;99203.38;;;1.13;56.18
68654;BME280;55636;51.108;13.622;2024-01-16T04:48:34;99204.47;;;1.12;55.90
68654;BME280;55636;51.108;13.622;2024-01-16T04:49:37;99208.00;;;1.12;55.96
68654;BME280;55636;51.108;13.622;2024-01-16T04:50:39;99205.28;;;1.12;55.90
68654;BME280;55636;51.108;13.622;2024-01-16T04:51:42;99206.34;;;1.11;55.97
68654;BME280;55636;51.108;13.622;2024-01-16T04:52:44;99199.84;;;1.12;55.75
68654;BME280;55636;51.108;13.622;2024-01-16T04:53:47;99200.91;;;1.11;55.87
68654;BME280;55636;51.108;13.622;2024-01-16T04:54:49;99203.38;;;1.13;55.72
68654;BME280;55636;51.108;13.622;2024-01-16T04:55:51;99205.28;;;1.12;55.64
68654;BME280;55636;51.108;13.622;2024-01-16T04:56:54;99208.00;;;1.12;55.72
68654;BME280;55636;51.108;13.622;2024-01-16T04:57:57;99210.72;;;1.12;55.69
68654;BME280;55636;51.108;13.622;2024-01-16T04:59:00;99202.56;;;1.12;55.63
68654;BME280;55636;51.108;13.622;2024-01-16T05:00:03;99215.13;;;1.13;55.53
68654;BME280;55636;51.108;13.622;2024-01-16T05:01:09;99214.06;;;1.14;55.66
68654;BME280;55636;51.108;13.622;2024-01-16T05:02:11;99217.38;;;1.16;55.58
68654;BME280;55636;51.108;13.622;2024-01-16T05:03:16;99213.59;;;1.17;55.42
68654;BME280;55636;51.108;13.622;2024-01-16T05:04:19;99213.84;;;1.16;55.38
68654;BME280;55636;51.108;13.622;2024-01-16T05:05:21;99208.41;;;1.16;55.57
68654;BME280;55636;51.108;13.622;2024-01-16T05:06:26;99217.38;;;1.16;55.41
68654;BME280;55636;51.108;13.622;2024-01-16T05:07:29;99208.41;;;1.16;55.44
68654;BME280;55636;51.108;13.622;2024-01-16T05:08:31;99221.75;;;1.17;55.27
68654;BME280;55636;51.108;13.622;2024-01-16T05:09:33;99214.66;;;1.16;55.34
68654;BME280;55636;51.108;13.622;2024-01-16T05:10:36;99223.63;;;1.17;55.23
68654;BME280;55636;51.108;13.622;2024-01-16T05:11:38;99226.16;;;1.18;55.34
68654;BME280;55636;51.108;13.622;2024-01-16T05:12:41;99216.91;;;1.19;55.21
68654;BME280;55636;51.108;13.622;2024-01-16T05:13:43;99227.78;;;1.19;55.32
68654;BME280;55636;51.108;13.622;2024-01-16T05:14:46;99227.78;;;1.19;55.31
68654;BME280;55636;51.108;13.622;2024-01-16T05:15:48;99214.19;;;1.19;55.09
68654;BME280;55636;51.108;13.622;2024-01-16T05:16:51;99229.47;;;1.20;54.94
68654;BME280;55636;51.108;13.622;2024-01-16T05:17:54;99223.19;;;1.20;54.96
68654;BME280;55636;51.108;13.622;2024-01-16T05:18:57;99226.75;;;1.20;54.92
68654;BME280;55636;51.108;13.622;2024-01-16T05:20:01;99234.91;;;1.20;54.83
68654;BME280;55636;51.108;13.622;2024-01-16T05:21:05;99234.09;;;1.20;54.78
68654;BME280;55636;51.108;13.622;2024-01-16T05:22:10;99228.63;;;1.20;54.68
68654;BME280;55636;51.108;13.622;2024-01-16T05:23:12;99228.41;;;1.21;54.65
68654;BME280;55636;51.108;13.622;2024-01-16T05:24:15;99230.31;;;1.21;54.52
68654;BME280;55636;51.108;13.622;2024-01-16T05:25:17;99222.97;;;1.21;54.47
68654;BME280;55636;51.108;13.622;2024-01-16T05:26:20;99236.56;;;1.21;54.52
68654;BME280;55636;51.108;13.622;2024-01-16T05:27:24;99244.72;;;1.21;54.28
68654;BME280;55636;51.108;13.622;2024-01-16T05:28:27;99241.78;;;1.23;54.22
68654;BME280;55636;51.108;13.622;2024-01-16T05:29:30;99240.34;;;1.20;54.33
68654;BME280;55636;51.108;13.622;2024-01-16T05:30:33;99239.75;;;1.18;54.25
68654;BME280;55636;51.108;13.622;2024-01-16T05:31:40;99252.91;;;1.21;54.24
68654;BME280;55636;51.108;13.622;2024-01-16T05:32:43;99253.13;;;1.20;54.02
68654;BME280;55636;51.108;13.622;2024-01-16T05:33:46;99251.22;;;1.20;54.16